createdAt,value
2022-12-25T00:01:45.583Z,7.20
2022-12-25T00:04:18.962Z,7.20
2022-12-25T00:06:52.053Z,7.14
2022-12-25T00:09:26.658Z,7.16
2022-12-25T00:11:59.754Z,7.20
2022-12-25T00:14:32.838Z,7.20
2022-12-25T00:17:05.983Z,7.20
2022-12-25T00:19:39.170Z,7.20
2022-12-25T00:22:12.374Z,7.20
2022-12-25T00:24:45.856Z,7.30
2022-12-25T00:27:19.305Z,7.30
2022-12-25T00:29:53.146Z,7.30
2022-12-25T00:32:26.415Z,7.30
2022-12-25T00:34:59.416Z,7.30
2022-12-25T00:37:32.432Z,7.30
2022-12-25T00:40:05.883Z,7.30
2022-12-25T00:42:39.145Z,7.40
2022-12-25T00:45:15.797Z,7.40
2022-12-25T00:47:49.060Z,7.40
2022-12-25T00:50:22.574Z,7.40
2022-12-25T00:52:55.596Z,7.46
2022-12-25T00:55:29.562Z,7.50
2022-12-25T00:58:03.300Z,7.50
2022-12-25T01:00:36.432Z,7.50
2022-12-25T01:03:11.041Z,7.50
2022-12-25T01:05:44.184Z,7.50
2022-12-25T01:08:17.256Z,7.50
2022-12-25T01:10:56.600Z,7.50
2022-12-25T01:13:30.013Z,7.50
2022-12-25T01:16:08.691Z,7.40
2022-12-25T01:18:43.487Z,7.40
2022-12-25T01:21:20.277Z,7.30
2022-12-25T01:23:54.979Z,7.20
2022-12-25T01:26:30.147Z,7.20
2022-12-25T01:29:03.879Z,7.10
2022-12-25T01:31:36.981Z,7.10
2022-12-25T01:34:10.080Z,7.02
2022-12-25T01:36:43.303Z,7.00
2022-12-25T01:39:16.279Z,7.00
2022-12-25T01:41:50.383Z,7.00
2022-12-25T01:45:24.329Z,7.00
2022-12-25T01:47:57.617Z,7.00
2022-12-25T01:50:30.876Z,7.00
2022-12-25T01:53:04.131Z,7.00
2022-12-25T01:55:37.754Z,7.00
2022-12-25T01:58:10.843Z,7.00
2022-12-25T02:00:44.051Z,7.00
2022-12-25T02:03:18.456Z,7.00
2022-12-25T02:05:52.848Z,6.90
2022-12-25T02:08:26.436Z,6.90
2022-12-25T02:10:59.980Z,6.80
2022-12-25T02:13:36.708Z,6.80
2022-12-25T02:16:16.849Z,6.80
2022-12-25T02:18:58.097Z,6.70
2022-12-25T02:21:52.864Z,6.70
2022-12-25T02:24:54.467Z,6.70
2022-12-25T02:27:49.237Z,6.70
2022-12-25T02:30:22.545Z,6.70
2022-12-25T02:33:15.421Z,6.70
2022-12-25T02:35:51.765Z,6.68
2022-12-25T02:38:32.545Z,6.60
2022-12-25T02:41:12.802Z,6.60
2022-12-25T02:44:04.973Z,6.50
2022-12-25T02:46:55.499Z,6.50
2022-12-25T02:49:45.511Z,6.58
2022-12-25T02:52:40.376Z,6.60
2022-12-25T02:55:34.187Z,6.60
2022-12-25T02:58:28.601Z,6.60
2022-12-25T03:01:22.759Z,6.70
2022-12-25T03:04:16.344Z,6.70
2022-12-25T03:07:09.392Z,6.70
2022-12-25T03:10:04.357Z,6.70
2022-12-25T03:12:47.718Z,6.70
2022-12-25T03:15:40.042Z,6.60
2022-12-25T03:18:19.174Z,6.60
2022-12-25T03:21:09.405Z,6.50
2022-12-25T03:24:03.650Z,6.50
2022-12-25T03:26:56.503Z,6.50
2022-12-25T03:29:50.678Z,6.50
2022-12-25T03:32:41.115Z,6.60
2022-12-25T03:35:24.122Z,6.60
2022-12-25T03:38:38.477Z,6.60
2022-12-25T03:41:36.063Z,6.50
2022-12-25T03:44:40.409Z,6.50
2022-12-25T03:47:52.876Z,6.48
2022-12-25T03:50:48.444Z,6.40
2022-12-25T03:53:44.848Z,6.40
2022-12-25T03:56:51.863Z,6.40
2022-12-25T03:59:43.427Z,6.40
2022-12-25T04:02:34.238Z,6.40
2022-12-25T04:05:26.122Z,6.40
2022-12-25T04:08:16.667Z,6.40
2022-12-25T04:11:05.194Z,6.40
2022-12-25T04:13:57.884Z,6.50
2022-12-25T04:16:48.175Z,6.50
2022-12-25T04:19:38.652Z,6.58
2022-12-25T04:22:27.592Z,6.50
2022-12-25T04:25:17.916Z,6.50
2022-12-25T04:28:08.420Z,6.40
2022-12-25T04:31:00.555Z,6.30
2022-12-25T04:33:51.238Z,6.20
2022-12-25T04:36:22.961Z,6.18
2022-12-25T04:38:55.989Z,6.10
2022-12-25T04:41:28.981Z,6.04
2022-12-25T04:44:01.962Z,6.00
2022-12-25T04:46:35.033Z,6.00
2022-12-25T04:49:08.099Z,6.00
2022-12-25T04:51:41.423Z,5.90
2022-12-25T04:54:14.374Z,5.90
2022-12-25T04:56:47.304Z,5.90
2022-12-25T04:59:20.275Z,5.84
2022-12-25T05:01:53.410Z,5.80
2022-12-25T05:04:26.410Z,5.80
2022-12-25T05:06:59.347Z,5.80
2022-12-25T05:09:32.599Z,5.70
2022-12-25T05:12:05.986Z,5.70
2022-12-25T05:14:40.126Z,5.70
2022-12-25T05:17:13.179Z,5.70
2022-12-25T05:19:46.222Z,5.70
2022-12-25T05:22:19.177Z,5.70
2022-12-25T05:24:52.205Z,5.70
2022-12-25T05:27:25.267Z,5.70
2022-12-25T05:29:58.235Z,5.70
2022-12-25T05:32:31.268Z,5.70
2022-12-25T05:35:04.329Z,5.70
2022-12-25T05:37:37.511Z,5.70
2022-12-25T05:40:13.759Z,5.70
2022-12-25T05:42:46.849Z,5.70
2022-12-25T05:45:20.016Z,5.70
2022-12-25T05:47:53.624Z,5.70
2022-12-25T05:50:26.658Z,5.70
2022-12-25T05:53:12.454Z,5.70
2022-12-25T05:55:46.895Z,5.70
2022-12-25T05:58:19.841Z,5.60
2022-12-25T06:00:52.884Z,5.60
2022-12-25T06:03:26.248Z,5.50
2022-12-25T06:05:59.301Z,5.50
2022-12-25T06:08:32.270Z,5.42
2022-12-25T06:11:08.341Z,5.40
2022-12-25T06:13:41.454Z,5.30
2022-12-25T06:16:15.407Z,5.20
2022-12-25T06:18:53.369Z,5.10
2022-12-25T06:21:26.424Z,5.00
2022-12-25T06:24:00.793Z,5.00
2022-12-25T06:26:33.987Z,4.90
2022-12-25T06:29:07.367Z,4.90
2022-12-25T06:31:40.426Z,4.80
2022-12-25T06:34:16.549Z,4.76
2022-12-25T06:36:49.675Z,4.70
2022-12-25T06:39:22.934Z,4.64
2022-12-25T06:41:55.956Z,4.60
2022-12-25T06:44:29.216Z,4.58
2022-12-25T06:47:02.171Z,4.50
2022-12-25T06:49:35.190Z,4.50
2022-12-25T06:52:08.347Z,4.40
2022-12-25T06:54:41.324Z,4.30
2022-12-25T06:57:14.358Z,4.28
2022-12-25T06:59:52.949Z,4.20
2022-12-25T07:02:26.485Z,4.20
2022-12-25T07:05:00.126Z,4.20
2022-12-25T07:07:33.140Z,4.26
2022-12-25T07:10:07.186Z,4.30
2022-12-25T07:12:40.257Z,4.30
2022-12-25T07:15:14.606Z,4.30
2022-12-25T07:17:47.532Z,4.30
2022-12-25T07:20:20.803Z,4.30
2022-12-25T07:22:53.814Z,4.38
2022-12-25T07:25:28.789Z,4.40
2022-12-25T07:28:05.251Z,4.48
2022-12-25T07:30:39.063Z,4.50
2022-12-25T07:33:12.100Z,4.60
2022-12-25T07:35:45.365Z,4.70
2022-12-25T07:38:18.340Z,4.70
2022-12-25T07:40:51.370Z,4.80
2022-12-25T07:43:24.669Z,4.90
2022-12-25T07:46:01.906Z,4.90
2022-12-25T07:48:35.033Z,5.00
2022-12-25T07:51:12.143Z,5.16
2022-12-25T07:53:45.769Z,5.40
2022-12-25T07:56:21.039Z,5.60
2022-12-25T07:58:54.231Z,5.90
2022-12-25T08:01:29.929Z,6.10
2022-12-25T08:04:04.970Z,6.40
2022-12-25T08:06:39.089Z,6.52
2022-12-25T08:09:14.098Z,6.70
2022-12-25T08:11:51.081Z,6.90
2022-12-25T08:14:24.120Z,7.12
2022-12-25T08:16:57.233Z,7.34
2022-12-25T08:19:30.413Z,7.52
2022-12-25T08:22:03.515Z,7.70
2022-12-25T08:24:36.254Z,7.90
2022-12-25T08:27:09.283Z,8.10
2022-12-25T08:29:44.658Z,8.38
2022-12-25T08:32:17.798Z,8.60
2022-12-25T08:34:50.806Z,8.72
2022-12-25T08:37:23.894Z,8.90
2022-12-25T08:39:56.865Z,9.18
2022-12-25T08:42:30.176Z,9.40
2022-12-25T08:45:04.828Z,9.76
2022-12-25T08:47:37.813Z,10.10
2022-12-25T08:50:12.620Z,10.50
2022-12-25T08:52:45.698Z,10.80
2022-12-25T08:55:18.914Z,11.10
2022-12-25T08:57:53.506Z,11.36
2022-12-25T09:00:26.770Z,11.70
2022-12-25T09:02:59.901Z,12.00
2022-12-25T09:05:35.741Z,12.40
2022-12-25T09:08:09.669Z,12.76
2022-12-25T09:10:42.745Z,13.08
2022-12-25T09:13:16.448Z,13.50
2022-12-25T09:15:49.865Z,13.82
2022-12-25T09:18:22.944Z,14.10
2022-12-25T09:21:04.647Z,14.40
2022-12-25T09:23:39.644Z,14.66
2022-12-25T09:26:16.716Z,14.84
2022-12-25T09:28:52.302Z,15.10
2022-12-25T09:31:26.404Z,15.36
2022-12-25T09:34:00.958Z,15.60
2022-12-25T09:36:34.039Z,15.80
2022-12-25T09:39:07.069Z,16.18
2022-12-25T09:41:50.333Z,16.72
2022-12-25T09:44:27.264Z,17.30
2022-12-25T09:47:04.130Z,17.76
2022-12-25T09:49:45.968Z,18.10
2022-12-25T09:52:22.229Z,18.48
2022-12-25T09:55:05.719Z,18.54
2022-12-25T09:57:38.713Z,18.56
2022-12-25T10:00:19.716Z,18.60
2022-12-25T10:03:37.395Z,18.78
2022-12-25T10:06:20.631Z,19.32
2022-12-25T10:09:22.068Z,19.70
2022-12-25T10:12:16.780Z,20.30
2022-12-25T10:15:04.979Z,20.50
2022-12-25T10:17:51.434Z,20.40
2022-12-25T10:20:40.312Z,19.78
2022-12-25T10:23:20.462Z,18.58
2022-12-25T10:25:55.284Z,17.12
2022-12-25T10:28:36.239Z,15.92
2022-12-25T10:31:22.353Z,14.92
2022-12-25T10:33:56.828Z,13.96
2022-12-25T10:36:31.932Z,13.06
2022-12-25T10:39:05.168Z,12.38
2022-12-25T10:42:04.365Z,11.90
2022-12-25T10:44:37.804Z,11.50
2022-12-25T10:47:11.390Z,11.12
2022-12-25T10:49:44.440Z,10.80
2022-12-25T10:52:27.072Z,10.60
2022-12-25T10:55:00.624Z,10.50
2022-12-25T10:57:33.699Z,10.40
2022-12-25T11:00:23.639Z,10.30
2022-12-25T11:02:57.090Z,10.20
2022-12-25T11:05:33.252Z,10.10
2022-12-25T11:08:19.497Z,10.10
2022-12-25T11:10:58.950Z,10.00
2022-12-25T11:13:34.505Z,10.00
2022-12-25T11:16:12.014Z,9.96
2022-12-25T11:18:54.386Z,9.90
2022-12-25T11:21:34.592Z,9.86
2022-12-25T11:24:20.112Z,9.80
2022-12-25T11:26:55.500Z,9.80
2022-12-25T11:29:38.845Z,9.80
2022-12-25T11:32:22.147Z,9.80
2022-12-25T11:34:56.655Z,9.80
2022-12-25T11:37:35.396Z,9.90
2022-12-25T11:40:16.016Z,9.90
2022-12-25T11:42:54.531Z,10.00
2022-12-25T11:45:33.553Z,10.04
2022-12-25T11:48:12.989Z,10.10
2022-12-25T11:50:49.697Z,10.20
2022-12-25T11:53:30.207Z,10.20
2022-12-25T11:56:03.355Z,10.30
2022-12-25T11:58:41.077Z,10.30
2022-12-25T12:01:30.791Z,10.32
2022-12-25T12:04:08.467Z,10.40
2022-12-25T12:06:52.462Z,10.40
2022-12-25T12:09:40.282Z,10.40
2022-12-25T12:12:18.723Z,10.50
2022-12-25T12:14:59.762Z,10.50
2022-12-25T12:17:33.365Z,10.50
2022-12-25T12:20:33.690Z,10.54
2022-12-25T12:23:14.932Z,10.60
2022-12-25T12:25:50.132Z,10.60
2022-12-25T12:28:29.468Z,10.70
2022-12-25T12:31:07.061Z,10.80
2022-12-25T12:33:45.247Z,11.08
2022-12-25T12:36:29.268Z,11.38
2022-12-25T12:39:08.601Z,11.58
2022-12-25T12:41:50.886Z,11.60
2022-12-25T12:44:28.041Z,11.50
2022-12-25T12:47:01.365Z,11.40
2022-12-25T12:49:34.981Z,11.30
2022-12-25T12:52:32.525Z,11.20
2022-12-25T12:55:08.567Z,11.20
2022-12-25T12:57:42.992Z,11.20
2022-12-25T13:00:22.679Z,11.20
2022-12-25T13:03:24.433Z,11.20
2022-12-25T13:06:03.737Z,11.20
2022-12-25T13:08:57.251Z,11.20
2022-12-25T13:11:33.221Z,11.30
2022-12-25T13:14:06.851Z,11.30
2022-12-25T13:16:43.750Z,11.30
2022-12-25T13:19:22.020Z,11.30
2022-12-25T13:22:00.541Z,11.30
2022-12-25T13:24:36.129Z,11.20
2022-12-25T13:27:27.107Z,11.10
2022-12-25T13:30:00.927Z,11.00
2022-12-25T13:32:36.690Z,10.90
2022-12-25T13:35:15.397Z,10.70
2022-12-25T13:37:48.846Z,10.60
2022-12-25T13:40:29.341Z,10.50
2022-12-25T13:43:02.723Z,10.34
2022-12-25T13:45:36.554Z,10.20
2022-12-25T13:48:20.312Z,10.10
2022-12-25T13:51:03.215Z,10.00
2022-12-25T13:53:36.179Z,9.90
2022-12-25T13:56:13.875Z,9.90
2022-12-25T13:58:49.619Z,9.84
2022-12-25T14:01:23.105Z,9.78
2022-12-25T14:03:57.072Z,9.70
2022-12-25T14:06:33.217Z,9.70
2022-12-25T14:09:07.235Z,9.60
2022-12-25T14:11:41.986Z,9.58
2022-12-25T14:14:23.044Z,9.50
2022-12-25T14:17:00.615Z,9.40
2022-12-25T14:19:35.927Z,9.40
2022-12-25T14:22:17.599Z,9.30
2022-12-25T14:24:50.937Z,9.20
2022-12-25T14:27:27.706Z,9.10
2022-12-25T14:30:02.401Z,9.00
2022-12-25T14:32:48.145Z,8.90
2022-12-25T14:35:23.703Z,8.90
2022-12-25T14:38:03.256Z,8.80
2022-12-25T14:40:37.305Z,8.76
2022-12-25T14:43:27.330Z,8.70
2022-12-25T14:46:02.923Z,8.62
2022-12-25T14:48:36.764Z,8.60
2022-12-25T14:51:17.496Z,8.54
2022-12-25T14:53:55.104Z,8.50
2022-12-25T14:56:33.328Z,8.50
2022-12-25T14:59:07.883Z,8.40
2022-12-25T15:01:43.078Z,8.40
2022-12-25T15:04:22.492Z,8.40
2022-12-25T15:07:00.941Z,8.40
2022-12-25T15:09:36.226Z,8.30
2022-12-25T15:12:09.986Z,8.30
2022-12-25T15:14:43.004Z,8.30
2022-12-25T15:17:26.560Z,8.30
2022-12-25T15:20:02.403Z,8.30
2022-12-25T15:23:02.408Z,8.20
2022-12-25T15:25:30.319Z,8.20
2022-12-25T15:28:06.694Z,8.20
2022-12-25T15:30:44.376Z,8.20
2022-12-25T15:33:20.516Z,8.10
2022-12-25T15:35:53.661Z,8.10
2022-12-25T15:38:26.770Z,8.10
2022-12-25T15:40:59.868Z,8.10
2022-12-25T15:43:41.196Z,8.10
2022-12-25T15:46:15.335Z,8.02
2022-12-25T15:48:48.565Z,8.00
2022-12-25T15:51:21.672Z,8.00
2022-12-25T15:53:54.828Z,8.00
2022-12-25T15:56:28.533Z,7.90
2022-12-25T15:59:01.503Z,7.90
2022-12-25T16:01:34.861Z,7.90
2022-12-25T16:04:07.965Z,7.98
2022-12-25T16:06:41.389Z,8.14
2022-12-25T16:09:16.622Z,8.26
2022-12-25T16:11:50.205Z,8.20
2022-12-25T16:14:23.294Z,8.10
2022-12-25T16:16:56.409Z,8.00
2022-12-25T16:19:29.537Z,7.90
2022-12-25T16:22:03.272Z,7.90
2022-12-25T16:24:36.581Z,7.80
2022-12-25T16:27:10.583Z,7.80
2022-12-25T16:29:43.773Z,7.70
2022-12-25T16:32:17.627Z,7.70
2022-12-25T16:34:53.137Z,7.70
2022-12-25T16:37:27.411Z,7.60
2022-12-25T16:40:00.655Z,7.60
2022-12-25T16:42:33.862Z,7.60
2022-12-25T16:45:08.107Z,7.56
2022-12-25T16:47:41.440Z,7.50
2022-12-25T16:50:16.543Z,7.50
2022-12-25T16:52:49.627Z,7.50
2022-12-25T16:55:29.344Z,7.50
2022-12-25T16:58:03.535Z,7.48
2022-12-25T17:00:36.770Z,7.40
2022-12-25T17:03:09.896Z,7.40
2022-12-25T17:05:43.251Z,7.40
2022-12-25T17:08:16.303Z,7.40
2022-12-25T17:10:49.363Z,7.40
2022-12-25T17:13:22.437Z,7.40
2022-12-25T17:15:55.499Z,7.40
2022-12-25T17:18:28.606Z,7.40
2022-12-25T17:21:01.787Z,7.40
2022-12-25T17:23:34.806Z,7.34
2022-12-25T17:26:08.753Z,7.30
2022-12-25T17:28:41.996Z,7.30
2022-12-25T17:31:16.171Z,7.30
2022-12-25T17:33:49.213Z,7.30
2022-12-25T17:36:24.190Z,7.30
2022-12-25T17:38:57.241Z,7.28
2022-12-25T17:41:30.546Z,7.22
2022-12-25T17:44:03.887Z,7.20
2022-12-25T17:46:36.935Z,7.20
2022-12-25T17:49:11.498Z,7.20
2022-12-25T17:51:44.765Z,7.20
2022-12-25T17:54:18.184Z,7.20
2022-12-25T17:56:51.201Z,7.20
2022-12-25T17:59:28.650Z,7.16
2022-12-25T18:02:01.835Z,7.10
2022-12-25T18:04:35.110Z,7.10
2022-12-25T18:07:08.132Z,7.10
2022-12-25T18:09:41.395Z,7.10
2022-12-25T18:12:14.527Z,7.10
2022-12-25T18:14:47.968Z,7.10
2022-12-25T18:17:20.974Z,7.10
2022-12-25T18:19:56.018Z,7.10
2022-12-25T18:22:29.036Z,7.10
2022-12-25T18:25:02.107Z,7.06
2022-12-25T18:27:35.242Z,7.04
2022-12-25T18:30:10.823Z,7.02
2022-12-25T18:32:44.017Z,7.10
2022-12-25T18:35:17.165Z,7.08
2022-12-25T18:37:50.330Z,7.06
2022-12-25T18:40:23.517Z,7.00
2022-12-25T18:43:02.918Z,7.00
2022-12-25T18:45:37.099Z,7.02
2022-12-25T18:48:11.658Z,7.02
2022-12-25T18:50:49.988Z,7.00
2022-12-25T18:53:24.041Z,7.00
2022-12-25T18:55:58.373Z,7.08
2022-12-25T18:58:31.492Z,7.10
2022-12-25T19:01:10.783Z,7.04
2022-12-25T19:03:44.290Z,7.00
2022-12-25T19:06:23.796Z,7.00
2022-12-25T19:08:57.997Z,7.00
2022-12-25T19:11:31.129Z,7.00
2022-12-25T19:14:04.260Z,7.00
2022-12-25T19:16:39.498Z,7.00
2022-12-25T19:19:13.280Z,7.00
2022-12-25T19:21:47.719Z,7.00
2022-12-25T19:24:20.909Z,7.00
2022-12-25T19:26:54.421Z,7.00
2022-12-25T19:29:27.931Z,7.00
2022-12-25T19:32:01.497Z,7.00
2022-12-25T19:34:34.715Z,7.00
2022-12-25T19:37:08.047Z,7.00
2022-12-25T19:39:46.248Z,7.00
2022-12-25T19:42:22.217Z,7.00
2022-12-25T19:44:56.075Z,7.00
2022-12-25T19:47:29.251Z,7.00
2022-12-25T19:50:03.584Z,7.00
2022-12-25T19:52:37.042Z,7.00
2022-12-25T19:55:11.765Z,7.00
2022-12-25T19:57:44.923Z,7.00
2022-12-25T20:00:19.552Z,7.00
2022-12-25T20:02:54.179Z,7.00
2022-12-25T20:05:29.160Z,7.00
2022-12-25T20:08:02.661Z,6.90
2022-12-25T20:10:35.786Z,6.90
2022-12-25T20:13:10.371Z,6.90
2022-12-25T20:15:43.883Z,6.90
2022-12-25T20:18:18.095Z,6.88
2022-12-25T20:20:51.291Z,6.82
2022-12-25T20:23:24.459Z,6.80
2022-12-25T20:26:01.109Z,6.80
2022-12-25T20:28:36.380Z,6.80
2022-12-25T20:31:20.795Z,6.80
2022-12-25T20:33:53.915Z,6.80
2022-12-25T20:36:32.627Z,6.80
2022-12-25T20:39:06.468Z,6.80
2022-12-25T20:41:40.994Z,6.90
2022-12-25T20:44:16.752Z,6.90
2022-12-25T20:46:49.805Z,6.90
2022-12-25T20:49:22.778Z,6.90
2022-12-25T20:52:01.345Z,6.90
2022-12-25T20:54:38.328Z,6.90
2022-12-25T20:57:11.535Z,6.90
2022-12-25T20:59:45.973Z,6.90
2022-12-25T21:02:34.709Z,6.90
2022-12-25T21:05:12.652Z,6.90
2022-12-25T21:07:45.722Z,6.88
2022-12-25T21:10:18.840Z,6.90
2022-12-25T21:12:52.040Z,6.90
2022-12-25T21:15:25.346Z,6.90
2022-12-25T21:17:58.402Z,6.90
2022-12-25T21:20:31.432Z,6.90
2022-12-25T21:23:04.425Z,6.90
2022-12-25T21:25:37.422Z,6.90
2022-12-25T21:28:10.826Z,7.00
2022-12-25T21:30:43.891Z,7.00
2022-12-25T21:33:35.439Z,7.00
2022-12-25T21:36:13.894Z,7.04
2022-12-25T21:38:47.142Z,7.08
2022-12-25T21:41:20.136Z,7.10
2022-12-25T21:43:53.300Z,7.10
2022-12-25T21:46:27.433Z,7.10
2022-12-25T21:49:01.085Z,7.10
2022-12-25T21:51:53.455Z,7.10
2022-12-25T21:54:26.866Z,7.14
2022-12-25T21:56:59.858Z,7.20
2022-12-25T21:59:32.950Z,7.20
2022-12-25T22:02:11.699Z,7.20
2022-12-25T22:04:45.309Z,7.20
2022-12-25T22:07:18.872Z,7.30
2022-12-25T22:09:53.593Z,7.30
2022-12-25T22:12:44.116Z,7.30
2022-12-25T22:15:15.641Z,7.30
2022-12-25T22:18:06.184Z,7.30
2022-12-25T22:20:42.413Z,7.30
2022-12-25T22:23:16.453Z,7.30
2022-12-25T22:25:49.436Z,7.28
2022-12-25T22:28:22.614Z,7.24
2022-12-25T22:30:55.858Z,7.20
2022-12-25T22:33:28.874Z,7.20
2022-12-25T22:36:08.828Z,7.20
2022-12-25T22:38:44.473Z,7.20
2022-12-25T22:41:17.602Z,7.20
2022-12-25T22:44:16.480Z,7.20
2022-12-25T22:46:43.964Z,7.20
2022-12-25T22:49:17.278Z,7.20
2022-12-25T22:51:52.424Z,7.20
2022-12-25T22:54:26.749Z,7.20
2022-12-25T22:57:00.778Z,7.20
2022-12-25T22:59:34.300Z,7.10
2022-12-25T23:02:07.850Z,7.10
2022-12-25T23:04:41.298Z,7.10
2022-12-25T23:07:15.866Z,7.10
2022-12-25T23:09:49.231Z,7.10
2022-12-25T23:12:42.092Z,7.10
2022-12-25T23:15:15.548Z,7.10
2022-12-25T23:18:06.022Z,7.10
2022-12-25T23:20:57.701Z,7.10
2022-12-25T23:23:48.203Z,7.10
2022-12-25T23:26:20.262Z,7.12
2022-12-25T23:29:10.474Z,7.20
2022-12-25T23:31:53.756Z,7.20
2022-12-25T23:34:27.369Z,7.20
2022-12-25T23:37:00.608Z,7.20
2022-12-25T23:39:33.921Z,7.20
2022-12-25T23:42:07.407Z,7.20
2022-12-25T23:44:40.392Z,7.20
2022-12-25T23:47:13.425Z,7.20
2022-12-25T23:49:46.476Z,7.20
2022-12-25T23:52:19.502Z,7.20
2022-12-25T23:54:53.087Z,7.20
2022-12-25T23:57:26.121Z,7.20
